TimeMST,TemperatureF,Dew PointF,Humidity,Sea Level PressureIn,VisibilityMPH,Wind Direction,Wind SpeedMPH,Gust SpeedMPH,PrecipitationIn,Events,Conditions,WindDirDegrees,DateUTC
12:19 AM,46.4,14.0,27,29.97,10.0,SSW,12.7,-,N/A,,Clear,200,2012-12-09 07:19:00
12:51 AM,41.0,12.9,32,29.86,10.0,Calm,Calm,-,N/A,,Clear,0,2012-12-09 07:51:00
1:51 AM,42.1,14.0,32,29.85,10.0,Calm,Calm,-,N/A,,Clear,0,2012-12-09 08:51:00
2:51 AM,45.0,15.1,30,29.85,10.0,WSW,6.9,-,N/A,,Clear,240,2012-12-09 09:51:00
3:51 AM,39.2,14.0,36,29.99,10.0,ENE,3.5,-,N/A,,Clear,60,2012-12-09 10:51:00
4:51 AM,35.1,14.0,42,29.88,10.0,South,5.8,-,N/A,,Clear,180,2012-12-09 11:51:00
5:51 AM,43.0,16.0,34,29.88,10.0,South,6.9,-,N/A,,Clear,190,2012-12-09 12:51:00
6:51 AM,36.0,15.1,43,29.94,10.0,East,6.9,-,N/A,,Clear,90,2012-12-09 13:51:00
7:51 AM,36.0,15.1,43,29.95,10.0,Calm,Calm,-,N/A,,Clear,0,2012-12-09 14:51:00
8:51 AM,46.0,16.0,30,29.95,10.0,SSW,3.5,-,N/A,,Clear,210,2012-12-09 15:51:00
9:51 AM,50.0,17.1,27,29.99,10.0,North,4.6,-,N/A,,Clear,10,2012-12-09 16:51:00
10:51 AM,55.0,19.0,24,30.01,10.0,North,18.4,-,N/A,,Clear,350,2012-12-09 17:51:00
11:51 AM,55.0,19.9,25,30.02,10.0,NE,12.7,-,N/A,,Clear,50,2012-12-09 18:51:00
11:58 AM,53.6,19.4,26,30.10,10.0,ENE,9.2,-,N/A,,Clear,60,2012-12-09 18:58:00
12:51 PM,57.2,19.4,23,30.09,10.0,North,20.7,27.6,N/A,,Clear,350,2012-12-09 19:51:00
1:51 PM,57.0,18.0,22,29.99,10.0,North,19.6,28.8,N/A,,Clear,350,2012-12-09 20:51:00
2:51 PM,57.0,16.0,20,30.00,10.0,North,20.7,26.5,N/A,,Clear,360,2012-12-09 21:51:00
3:51 PM,54.0,16.0,22,30.03,10.0,NNW,27.6,32.2,N/A,,Clear,340,2012-12-09 22:51:00
4:51 PM,52.0,15.1,23,30.06,10.0,North,18.4,-,N/A,,Clear,350,2012-12-09 23:51:00
5:51 PM,48.9,12.9,24,30.05,10.0,North,18.4,-,N/A,,Clear,10,2012-12-10 00:51:00
6:51 PM,45.0,12.9,27,30.11,10.0,North,5.8,-,N/A,,Clear,10,2012-12-10 01:51:00
7:51 PM,41.0,12.0,31,30.15,10.0,ENE,3.5,-,N/A,,Clear,70,2012-12-10 02:51:00
8:51 PM,39.9,10.9,31,30.14,10.0,NE,8.1,-,N/A,,Clear,50,2012-12-10 03:51:00
9:51 PM,37.9,10.9,33,30.15,10.0,East,3.5,-,N/A,,Clear,80,2012-12-10 04:51:00
10:51 PM,36.0,8.1,31,30.16,10.0,NE,10.4,-,N/A,,Clear,40,2012-12-10 05:51:00
11:51 PM,33.1,7.0,34,30.17,10.0,NNE,4.6,-,N/A,,Clear,20,2012-12-10 06:51:00